createdAt,value
2022-11-01T00:00:21.168Z,11.98
2022-11-01T00:04:42.868Z,11.95
2022-11-01T00:08:44.927Z,11.97
2022-11-01T00:12:47.098Z,11.96
2022-11-01T00:16:49.178Z,12.01
2022-11-01T00:20:50.925Z,12.01
2022-11-01T00:24:54.852Z,12.06
2022-11-01T00:28:57.008Z,12.01
2022-11-01T00:32:58.874Z,12.04
2022-11-01T00:37:00.635Z,12.02
2022-11-01T00:41:04.077Z,11.99
2022-11-01T00:45:06.321Z,11.98
2022-11-01T00:49:08.140Z,12.00
2022-11-01T00:53:11.990Z,11.92
2022-11-01T00:57:13.929Z,11.96
2022-11-01T01:01:15.779Z,11.95
2022-11-01T01:05:18.548Z,11.95
2022-11-01T01:09:20.620Z,11.94
2022-11-01T01:13:23.237Z,11.90
2022-11-01T01:17:26.719Z,11.85
2022-11-01T01:21:30.693Z,11.87
2022-11-01T01:25:32.929Z,11.86
2022-11-01T01:29:35.130Z,11.88
2022-11-01T01:33:36.831Z,11.76
2022-11-01T01:37:38.783Z,11.64
2022-11-01T01:41:58.905Z,11.77
2022-11-01T01:46:00.793Z,11.73
2022-11-01T01:50:26.848Z,11.75
2022-11-01T01:54:28.804Z,11.66
2022-11-01T01:58:35.561Z,11.67
2022-11-01T02:02:38.765Z,11.52
2022-11-01T02:06:40.835Z,11.55
2022-11-01T02:10:43.223Z,11.48
2022-11-01T02:14:46.101Z,11.47
2022-11-01T02:19:04.700Z,11.56
2022-11-01T02:23:43.651Z,11.61
2022-11-01T02:27:57.299Z,11.52
2022-11-01T02:32:19.823Z,11.53
2022-11-01T02:36:40.781Z,11.58
2022-11-01T02:41:01.070Z,11.53
2022-11-01T02:45:08.363Z,11.52
2022-11-01T02:49:13.769Z,11.54
2022-11-01T02:53:15.765Z,11.55
2022-11-01T02:57:17.506Z,11.59
2022-11-01T03:01:24.739Z,11.55
2022-11-01T03:05:50.500Z,11.56
2022-11-01T03:09:52.506Z,11.50
2022-11-01T03:14:09.587Z,11.56
2022-11-01T03:18:20.778Z,11.50
2022-11-01T03:22:48.947Z,11.50
2022-11-01T03:27:01.256Z,11.43
2022-11-01T03:31:11.646Z,11.27
2022-11-01T03:35:20.056Z,11.25
2022-11-01T03:39:33.292Z,11.18
2022-11-01T03:43:36.392Z,11.06
2022-11-01T03:47:38.101Z,11.07
2022-11-01T03:51:40.088Z,11.10
2022-11-01T03:55:42.232Z,11.03
2022-11-01T03:59:44.071Z,11.09
2022-11-01T04:03:45.922Z,10.93
2022-11-01T04:07:48.009Z,10.95
2022-11-01T04:11:49.658Z,10.96
2022-11-01T04:16:10.048Z,11.09
2022-11-01T04:20:30.428Z,11.17
2022-11-01T04:24:32.179Z,11.28
2022-11-01T04:28:33.978Z,11.34
2022-11-01T04:32:35.736Z,11.26
2022-11-01T04:36:38.438Z,11.26
2022-11-01T04:40:41.495Z,11.21
2022-11-01T04:44:43.227Z,11.16
2022-11-01T04:48:45.087Z,11.12
2022-11-01T04:52:48.113Z,11.17
2022-11-01T04:56:49.862Z,11.28
2022-11-01T05:00:51.580Z,11.21
2022-11-01T05:04:53.544Z,11.18
2022-11-01T05:08:55.559Z,11.20
2022-11-01T05:12:57.614Z,11.07
2022-11-01T05:17:00.149Z,11.23
2022-11-01T05:21:01.893Z,11.21
2022-11-01T05:25:04.042Z,11.14
2022-11-01T05:29:13.314Z,11.10
2022-11-01T05:33:26.047Z,11.19
2022-11-01T05:37:28.318Z,11.10
2022-11-01T05:41:30.140Z,11.24
2022-11-01T05:45:31.981Z,11.18
2022-11-01T05:49:33.701Z,11.26
2022-11-01T05:53:35.518Z,11.28
2022-11-01T05:57:37.370Z,11.28
2022-11-01T06:01:39.393Z,11.18
2022-11-01T06:05:41.208Z,11.09
2022-11-01T06:09:42.980Z,11.20
2022-11-01T06:13:44.718Z,11.06
2022-11-01T06:17:46.636Z,11.10
2022-11-01T06:21:48.247Z,11.22
2022-11-01T06:25:50.204Z,11.14
2022-11-01T06:29:52.003Z,11.05
2022-11-01T06:33:53.806Z,11.14
2022-11-01T06:37:55.577Z,11.21
2022-11-01T06:41:57.603Z,11.18
2022-11-01T06:46:00.922Z,11.08
2022-11-01T06:50:04.413Z,11.07
2022-11-01T06:54:06.294Z,11.20
2022-11-01T06:58:09.172Z,11.39
2022-11-01T07:02:14.324Z,11.41
2022-11-01T07:06:16.811Z,11.35
2022-11-01T07:10:18.541Z,11.64
2022-11-01T07:14:20.359Z,11.64
2022-11-01T07:18:22.098Z,11.68
2022-11-01T07:22:24.450Z,11.91
2022-11-01T07:26:26.129Z,11.91
2022-11-01T07:30:28.748Z,11.92
2022-11-01T07:34:30.459Z,11.87
2022-11-01T07:38:32.453Z,11.91
2022-11-01T07:42:41.055Z,11.93
2022-11-01T07:46:42.794Z,11.84
2022-11-01T07:50:45.736Z,12.04
2022-11-01T07:54:47.759Z,12.12
2022-11-01T07:58:49.472Z,12.15
2022-11-01T08:02:51.404Z,12.15
2022-11-01T08:06:53.304Z,12.07
2022-11-01T08:10:55.062Z,11.95
2022-11-01T08:14:56.744Z,12.06
2022-11-01T08:18:58.644Z,12.07
2022-11-01T08:23:00.666Z,12.18
2022-11-01T08:27:03.984Z,12.08
2022-11-01T08:31:08.092Z,12.24
2022-11-01T08:35:12.102Z,12.14
2022-11-01T08:39:14.420Z,11.85
2022-11-01T08:43:17.830Z,11.82
2022-11-01T08:47:19.530Z,11.88
2022-11-01T08:51:25.771Z,12.10
2022-11-01T08:55:27.763Z,11.92
2022-11-01T08:59:29.716Z,11.81
2022-11-01T09:03:31.430Z,11.91
2022-11-01T09:07:37.625Z,11.93
2022-11-01T09:11:39.538Z,12.13
2022-11-01T09:15:41.332Z,12.11
2022-11-01T09:19:43.209Z,12.12
2022-11-01T09:23:46.437Z,12.19
2022-11-01T09:27:48.156Z,12.31
2022-11-01T09:31:54.102Z,12.44
2022-11-01T09:35:59.514Z,12.34
2022-11-01T09:40:01.979Z,12.59
2022-11-01T09:44:06.554Z,12.32
2022-11-01T09:48:10.965Z,12.59
2022-11-01T09:52:24.254Z,12.78
2022-11-01T09:56:34.754Z,12.88
2022-11-01T10:00:45.997Z,13.04
2022-11-01T10:05:25.159Z,13.06
2022-11-01T10:09:29.883Z,13.06
2022-11-01T10:14:05.181Z,12.81
2022-11-01T10:18:22.013Z,12.83
2022-11-01T10:22:35.281Z,12.71
2022-11-01T10:26:44.412Z,12.82
2022-11-01T10:30:53.638Z,12.67
2022-11-01T10:35:04.986Z,12.52
2022-11-01T10:39:53.228Z,12.56
2022-11-01T10:43:49.437Z,12.55
2022-11-01T10:47:57.306Z,12.70
2022-11-01T10:52:05.257Z,12.45
2022-11-01T10:56:10.020Z,12.58
2022-11-01T11:00:17.722Z,12.44
2022-11-01T11:04:24.708Z,12.41
2022-11-01T11:08:26.971Z,12.27
2022-11-01T11:12:31.034Z,12.13
2022-11-01T11:16:39.203Z,12.08
2022-11-01T11:20:41.167Z,12.21
2022-11-01T11:24:45.052Z,12.34
2022-11-01T11:28:55.332Z,12.31
2022-11-01T11:32:58.703Z,12.20
2022-11-01T11:37:02.034Z,12.29
2022-11-01T11:41:03.923Z,12.47
2022-11-01T11:45:29.563Z,12.45
2022-11-01T11:49:32.453Z,12.19
2022-11-01T11:53:35.265Z,12.17
2022-11-01T11:57:37.125Z,12.02
2022-11-01T12:01:39.121Z,11.94
2022-11-01T12:05:52.968Z,11.86
2022-11-01T12:09:56.082Z,11.87
2022-11-01T12:14:20.238Z,11.86
2022-11-01T12:18:23.978Z,11.98
2022-11-01T12:22:29.696Z,11.79
2022-11-01T12:26:35.114Z,11.81
2022-11-01T12:30:39.119Z,12.13
2022-11-01T12:34:43.313Z,11.98
2022-11-01T12:38:55.415Z,12.02
2022-11-01T12:43:03.221Z,12.01
2022-11-01T12:47:11.057Z,11.73
2022-11-01T12:51:36.602Z,11.81
2022-11-01T12:55:41.253Z,12.06
2022-11-01T12:59:44.366Z,11.97
2022-11-01T13:04:05.174Z,11.79
2022-11-01T13:08:12.509Z,11.78
2022-11-01T13:12:42.136Z,11.74
2022-11-01T13:16:49.882Z,11.49
2022-11-01T13:21:27.110Z,11.60
2022-11-01T13:25:40.193Z,11.66
2022-11-01T13:29:46.452Z,11.67
2022-11-01T13:34:08.394Z,11.41
2022-11-01T13:38:20.831Z,11.32
2022-11-01T13:42:42.079Z,11.19
2022-11-01T13:47:08.098Z,10.89
2022-11-01T13:51:26.878Z,10.97
2022-11-01T13:55:38.088Z,11.02
2022-11-01T13:59:44.366Z,11.09
2022-11-01T14:03:49.682Z,11.21
2022-11-01T14:07:53.936Z,11.27
2022-11-01T14:12:11.639Z,11.35
2022-11-01T14:16:16.237Z,11.13
2022-11-01T14:20:28.074Z,11.05
2022-11-01T14:24:34.861Z,11.05
2022-11-01T14:28:43.435Z,11.07
2022-11-01T14:32:53.458Z,11.04
2022-11-01T14:37:00.523Z,11.03
2022-11-01T14:41:03.511Z,11.13
2022-11-01T14:45:24.791Z,11.02
2022-11-01T14:49:36.045Z,11.18
2022-11-01T14:53:40.028Z,11.24
2022-11-01T14:57:42.168Z,11.13
2022-11-01T15:01:46.152Z,11.04
2022-11-01T15:05:50.751Z,11.12
2022-11-01T15:10:13.674Z,11.24
2022-11-01T15:14:25.485Z,11.26
2022-11-01T15:18:28.108Z,11.12
2022-11-01T15:22:33.758Z,11.17
2022-11-01T15:26:36.265Z,11.08
2022-11-01T15:30:38.888Z,11.06
2022-11-01T15:34:52.248Z,11.04
2022-11-01T15:38:56.937Z,11.03
2022-11-01T15:43:03.938Z,11.16
2022-11-01T15:47:06.918Z,11.15
2022-11-01T15:51:20.238Z,11.19
2022-11-01T15:55:31.612Z,11.10
2022-11-01T15:59:48.723Z,11.17
2022-11-01T16:04:02.328Z,11.14
2022-11-01T16:08:22.294Z,11.22
2022-11-01T16:12:30.782Z,11.18
2022-11-01T16:16:58.812Z,11.31
2022-11-01T16:21:21.705Z,11.32
2022-11-01T16:25:26.162Z,11.34
2022-11-01T16:29:51.027Z,11.39
2022-11-01T16:33:54.000Z,11.32
2022-11-01T16:37:56.009Z,11.36
2022-11-01T16:41:59.150Z,11.34
2022-11-01T16:46:01.332Z,11.38
2022-11-01T16:50:03.558Z,11.41
2022-11-01T16:54:05.441Z,11.41
2022-11-01T16:58:15.260Z,11.46
2022-11-01T17:02:25.112Z,11.48
2022-11-01T17:06:27.017Z,11.53
2022-11-01T17:10:30.987Z,11.50
2022-11-01T17:14:35.253Z,11.43
2022-11-01T17:18:41.686Z,11.46
2022-11-01T17:22:43.836Z,11.54
2022-11-01T17:26:46.416Z,11.45
2022-11-01T17:30:48.466Z,11.51
2022-11-01T17:34:50.488Z,11.54
2022-11-01T17:38:52.252Z,11.52
2022-11-01T17:42:54.465Z,11.44
2022-11-01T17:47:14.576Z,11.57
2022-11-01T17:51:18.023Z,11.62
2022-11-01T17:55:19.743Z,11.56
2022-11-01T17:59:21.704Z,11.56
2022-11-01T18:03:23.452Z,11.57
2022-11-01T18:07:34.842Z,11.52
2022-11-01T18:11:48.231Z,11.54
2022-11-01T18:16:20.568Z,11.57
2022-11-01T18:20:58.463Z,11.67
2022-11-01T18:25:11.033Z,11.62
2022-11-01T18:29:21.349Z,11.55
2022-11-01T18:33:30.837Z,11.45
2022-11-01T18:38:11.529Z,11.54
2022-11-01T18:42:13.448Z,11.56
2022-11-01T18:46:27.474Z,11.45
2022-11-01T18:50:29.625Z,11.41
2022-11-01T18:54:33.033Z,11.40
2022-11-01T18:58:35.948Z,11.31
2022-11-01T19:02:38.679Z,11.24
2022-11-01T19:06:40.674Z,11.12
2022-11-01T19:10:42.487Z,11.13
2022-11-01T19:14:48.692Z,11.04
2022-11-01T19:18:50.542Z,11.09
2022-11-01T19:23:08.712Z,11.13
2022-11-01T19:27:24.842Z,10.99
2022-11-01T19:31:32.991Z,10.99
2022-11-01T19:35:34.653Z,10.99
2022-11-01T19:39:40.195Z,11.09
2022-11-01T19:43:42.213Z,11.15
2022-11-01T19:47:47.407Z,11.21
2022-11-01T19:52:09.278Z,11.18
2022-11-01T19:56:16.337Z,10.87
2022-11-01T20:00:20.727Z,10.91
2022-11-01T20:04:27.916Z,10.91
2022-11-01T20:08:33.498Z,10.78
2022-11-01T20:12:35.398Z,10.91
2022-11-01T20:16:37.150Z,10.93
2022-11-01T20:20:43.789Z,10.99
2022-11-01T20:24:46.086Z,10.88
2022-11-01T20:28:49.075Z,10.87
2022-11-01T20:32:51.489Z,10.86
2022-11-01T20:37:14.871Z,10.88
2022-11-01T20:41:15.305Z,10.97
2022-11-01T20:45:17.166Z,10.87
2022-11-01T20:49:19.024Z,10.88
2022-11-01T20:53:21.520Z,10.90
2022-11-01T20:57:28.305Z,10.83
2022-11-01T21:01:30.665Z,10.92
2022-11-01T21:05:34.730Z,10.87
2022-11-01T21:09:43.582Z,10.87
2022-11-01T21:13:45.728Z,10.90
2022-11-01T21:17:52.200Z,10.92
2022-11-01T21:21:57.067Z,10.88
2022-11-01T21:26:12.681Z,10.95
2022-11-01T21:30:20.472Z,10.95
2022-11-01T21:34:31.181Z,10.92
2022-11-01T21:38:40.519Z,10.90
2022-11-01T21:42:44.757Z,11.04
2022-11-01T21:46:53.138Z,11.08
2022-11-01T21:50:55.261Z,11.05
2022-11-01T21:54:56.894Z,11.07
2022-11-01T21:58:59.684Z,11.02
2022-11-01T22:03:01.733Z,11.02
2022-11-01T22:07:06.163Z,10.91
2022-11-01T22:11:07.883Z,11.00
2022-11-01T22:15:10.234Z,10.88
2022-11-01T22:19:11.930Z,10.84
2022-11-01T22:23:13.972Z,11.06
2022-11-01T22:27:15.793Z,11.13
2022-11-01T22:31:18.280Z,11.18
2022-11-01T22:35:21.478Z,11.08
2022-11-01T22:39:26.500Z,11.06
2022-11-01T22:43:28.550Z,11.09
2022-11-01T22:47:30.510Z,11.04
2022-11-01T22:51:42.990Z,11.06
2022-11-01T22:55:46.907Z,10.93
2022-11-01T22:59:53.468Z,11.03
2022-11-01T23:03:57.228Z,10.83
2022-11-01T23:08:10.138Z,10.80
2022-11-01T23:12:40.695Z,10.75
2022-11-01T23:16:44.065Z,10.70
2022-11-01T23:21:01.980Z,10.80
2022-11-01T23:25:04.358Z,10.87
2022-11-01T23:29:06.266Z,10.83
2022-11-01T23:33:11.875Z,10.85
2022-11-01T23:37:21.007Z,10.85
2022-11-01T23:41:25.953Z,10.95
2022-11-01T23:45:33.971Z,10.87
2022-11-01T23:49:36.019Z,10.90
2022-11-01T23:53:40.592Z,10.86
2022-11-01T23:57:42.543Z,10.88
